Time;durP1;ratioP1;P1;durP2;ratioP2;P2;SDS_P1;SDS_P2;PMS_P1;PMS_P2;Temp;Humidity;BMP_temperature;BMP_pressure;BME280_temperature;BME280_humidity;BME280_pressure;Samples;Min_cycle;Max_cycle;Signal;HPM_P1;HPM_P2
2023/11/30 00:02:24;;;;;;;11.20;10.10;;;6.10;99.90;;;6.35;90.67;100095.91;5113455;28;20074;-67
2023/11/30 00:04:52;;;;;;;10.55;9.55;;;6.10;99.90;;;6.30;90.29;100089.78;5113497;28;20070;-67
2023/11/30 00:07:22;;;;;;;10.25;9.15;;;6.10;99.90;;;6.32;90.37;100100.28;5113320;28;20602;-67
2023/11/30 00:09:51;;;;;;;12.23;9.32;;;6.10;99.90;;;6.28;90.52;100095.91;5113276;28;20046;-67
2023/11/30 00:12:19;;;;;;;10.68;9.57;;;6.00;99.90;;;6.26;90.10;100088.03;5095221;28;20131;-67
2023/11/30 00:14:47;;;;;;;11.65;9.32;;;6.00;99.90;;;6.24;90.26;100091.50;5113386;28;20408;-67
2023/11/30 00:17:16;;;;;;;12.52;11.23;;;6.00;99.90;;;6.02;90.09;100095.03;5113151;28;20070;-67
2023/11/30 00:19:44;;;;;;;12.18;10.63;;;5.80;99.90;;;5.97;90.81;100086.25;5113627;28;20047;-67
2023/11/30 00:22:12;;;;;;;11.38;10.27;;;5.70;99.90;;;6.06;90.70;100084.50;5113074;28;20070;-67
2023/11/30 00:24:42;;;;;;;11.68;9.85;;;5.80;99.90;;;6.12;90.66;100088.88;5112998;28;20039;-67
2023/11/30 00:27:10;;;;;;;13.37;10.87;;;5.80;99.90;;;6.12;90.96;100084.50;5113281;28;20554;-67
2023/11/30 00:29:39;;;;;;;12.20;9.88;;;5.80;99.90;;;6.06;90.90;100055.63;5113097;28;20290;-67
2023/11/30 00:32:07;;;;;;;10.85;9.75;;;5.90;99.90;;;6.18;90.34;100073.13;5094705;28;20042;-67
2023/11/30 00:34:36;;;;;;;11.63;10.43;;;5.90;99.90;;;6.19;90.12;100069.66;5097169;28;20052;-67
2023/11/30 00:37:04;;;;;;;13.45;10.55;;;5.90;99.90;;;6.20;90.07;100072.28;5099206;28;20051;-67
2023/11/30 00:39:33;;;;;;;12.48;11.20;;;5.90;99.90;;;6.15;89.75;100060.91;5117411;28;20085;-67
2023/11/30 00:42:03;;;;;;;12.23;10.35;;;5.90;99.90;;;6.15;89.54;100073.16;5117163;28;20043;-67
2023/11/30 00:44:32;;;;;;;12.93;10.35;;;5.90;99.90;;;6.21;89.75;100071.38;5117129;28;20427;-67
2023/11/30 00:47:00;;;;;;;12.95;10.52;;;5.90;99.90;;;6.23;89.84;100074.03;5117258;28;20072;-67
2023/11/30 00:49:28;;;;;;;12.63;10.57;;;5.90;99.90;;;6.27;89.40;100074.00;5117275;28;20085;-67
2023/11/30 00:51:57;;;;;;;13.18;10.93;;;6.00;99.90;;;6.24;89.57;100058.28;5117221;28;20047;-67
2023/11/30 00:54:25;;;;;;;12.90;11.40;;;6.10;99.90;;;6.19;89.53;100060.00;5116851;28;20126;-67
2023/11/30 00:56:53;;;;;;;14.45;11.07;;;6.00;99.90;;;6.03;89.41;100026.78;5098808;28;20050;-67
2023/11/30 00:59:23;;;;;;;12.75;11.40;;;6.00;99.90;;;6.18;89.53;100057.38;5117114;28;20533;-67
2023/11/30 01:01:52;;;;;;;14.63;11.43;;;6.00;99.90;;;6.12;89.63;100058.25;5095170;28;20083;-67
2023/11/30 01:04:20;;;;;;;12.93;11.13;;;5.90;99.90;;;6.00;89.46;100057.41;5096295;28;20070;-67
2023/11/30 01:06:49;;;;;;;12.52;10.68;;;5.80;99.90;;;5.69;89.80;100058.19;5096454;28;20374;-67
2023/11/30 01:09:17;;;;;;;11.73;10.40;;;5.50;99.90;;;5.23;91.50;100052.81;5095471;28;20056;-67
2023/11/30 01:11:46;;;;;;;14.45;11.30;;;5.00;99.90;;;5.33;91.96;100009.13;5095078;28;20404;-67
2023/11/30 01:14:14;;;;;;;13.77;10.80;;;5.30;99.90;;;5.67;91.73;100044.19;5096428;28;20097;-67
2023/11/30 01:16:44;;;;;;;14.93;11.88;;;5.40;99.90;;;5.71;91.82;100043.34;5095092;28;20538;-67
2023/11/30 01:19:13;;;;;;;15.27;11.35;;;5.50;99.90;;;5.72;91.16;100045.94;5095076;28;20060;-67
2023/11/30 01:21:41;;;;;;;13.55;11.30;;;5.50;99.90;;;5.27;92.37;100040.56;5096041;28;20124;-67
2023/11/30 01:24:10;;;;;;;11.57;10.23;;;5.10;99.90;;;5.26;93.13;100038.84;5096738;28;20050;-67
2023/11/30 01:26:38;;;;;;;14.63;10.95;;;5.10;99.90;;;5.04;93.25;100018.66;5096118;28;20370;-67
2023/11/30 01:29:06;;;;;;;17.15;10.80;;;5.00;99.90;;;5.25;93.33;100037.06;5096128;28;20048;-67
2023/11/30 01:31:35;;;;;;;16.00;11.07;;;5.10;99.90;;;5.12;93.47;100033.56;5096046;28;20382;-67
2023/11/30 01:34:05;;;;;;;14.37;11.10;;;5.00;99.90;;;5.30;93.83;100040.59;5095875;28;20809;-67
2023/11/30 01:36:34;;;;;;;13.43;11.52;;;5.10;99.90;;;5.44;93.01;100038.88;5096050;28;20052;-67
2023/11/30 01:39:02;;;;;;;13.80;11.50;;;5.20;99.90;;;5.40;93.30;100026.66;5095918;28;20068;-67
2023/11/30 01:41:31;;;;;;;11.32;10.18;;;5.30;99.90;;;5.54;93.03;100035.41;5095925;28;20051;-68
2023/11/30 01:43:59;;;;;;;13.43;11.10;;;5.40;99.90;;;5.60;92.48;100034.53;5095663;28;20043;-68
2023/11/30 01:46:28;;;;;;;14.48;10.68;;;5.40;99.90;;;5.56;92.37;100038.91;5094102;28;20549;-68
2023/11/30 01:48:57;;;;;;;12.45;10.48;;;5.40;99.90;;;5.39;92.13;100040.63;5096023;28;20040;-67
2023/11/30 01:51:28;;;;;;;14.88;11.65;;;5.20;99.90;;;5.29;92.98;100030.97;5095897;28;20043;-67
2023/11/30 01:53:58;;;;;;;12.57;10.43;;;5.10;99.90;;;5.29;92.61;100031.84;5094425;28;20158;-67
2023/11/30 01:56:27;;;;;;;14.85;11.27;;;5.10;99.90;;;5.15;92.68;100036.16;5095758;28;20043;-67
2023/11/30 01:58:56;;;;;;;12.32;10.98;;;4.90;99.90;;;5.25;92.82;100037.06;5094257;28;20059;-67
2023/11/30 02:01:26;;;;;;;12.98;10.88;;;5.00;99.90;;;5.30;92.47;100022.25;5094152;28;20052;-66
2023/11/30 02:03:55;;;;;;;14.25;11.00;;;5.10;99.90;;;5.29;92.31;100033.59;5095307;28;20397;-67
2023/11/30 02:06:25;;;;;;;13.13;10.93;;;5.10;99.90;;;5.30;92.70;100028.34;5095358;28;20127;-67
2023/11/30 02:08:55;;;;;;;14.47;12.00;;;5.10;99.90;;;5.33;92.03;100022.25;5094080;28;20040;-67
2023/11/30 02:11:24;;;;;;;13.90;11.35;;;5.20;99.90;;;5.13;92.60;100029.19;5094015;28;20055;-67
2023/11/30 02:13:53;;;;;;;15.05;11.45;;;5.00;99.90;;;5.11;92.76;100029.16;5095301;28;20079;-67
2023/11/30 02:16:21;;;;;;;14.95;11.15;;;4.90;99.90;;;5.20;92.95;100023.97;5093933;28;20139;-67
2023/11/30 02:18:51;;;;;;;13.95;11.50;;;5.00;99.90;;;5.22;92.96;100021.34;5094095;28;20059;-67
2023/11/30 02:21:19;;;;;;;14.85;11.07;;;5.00;99.90;;;5.25;92.89;100023.97;5094018;28;20512;-67
2023/11/30 02:23:49;;;;;;;15.17;11.90;;;5.10;99.90;;;5.24;92.76;100028.34;5093782;28;20036;-67
2023/11/30 02:26:18;;;;;;;17.70;12.43;;;5.10;99.90;;;5.25;93.04;100024.84;5095071;28;20047;-67
2023/11/30 02:28:47;;;;;;;16.25;12.38;;;5.10;99.90;;;5.20;92.61;100025.72;5095189;28;20125;-67
2023/11/30 02:31:15;;;;;;;15.43;11.75;;;5.00;99.90;;;5.17;92.59;100015.19;5093888;28;20133;-68
2023/11/30 02:33:43;;;;;;;15.45;12.13;;;4.90;99.90;;;5.21;92.84;100019.59;5094890;28;20040;-68
2023/11/30 02:36:13;;;;;;;15.93;12.67;;;5.00;99.90;;;4.70;92.60;99896.28;5095080;28;20476;-67
2023/11/30 02:38:42;;;;;;;19.27;11.32;;;5.10;99.90;;;5.33;91.70;100015.28;5094792;28;20467;-67
2023/11/30 02:41:11;;;;;;;12.70;10.90;;;5.10;99.90;;;5.31;91.80;100010.88;5094497;28;20048;-67
2023/11/30 02:43:40;;;;;;;14.30;11.80;;;5.10;99.90;;;5.32;91.40;100016.13;5094823;28;20036;-68
2023/11/30 02:46:09;;;;;;;16.50;12.10;;;5.10;99.90;;;5.35;91.38;100008.28;5094786;28;20036;-67
2023/11/30 02:48:38;;;;;;;14.33;11.00;;;5.10;99.90;;;5.38;91.30;100008.28;5094295;28;20477;-68
2023/11/30 02:51:07;;;;;;;15.15;11.65;;;5.20;99.90;;;5.44;90.92;100004.78;5093098;28;20113;-68
2023/11/30 02:53:35;;;;;;;15.27;11.50;;;5.20;99.90;;;5.43;91.37;100006.56;5094822;28;20816;-67
2023/11/30 02:56:05;;;;;;;16.52;11.90;;;5.30;99.90;;;5.41;91.19;99992.56;5094497;28;20048;-67
2023/11/30 02:58:35;;;;;;;18.50;12.98;;;5.30;99.90;;;5.46;91.02;100001.31;5092899;28;20444;-67
2023/11/30 03:01:03;;;;;;;15.77;12.00;;;5.30;99.90;;;5.49;91.10;100003.06;5095814;28;20082;-67
2023/11/30 03:03:32;;;;;;;16.27;11.73;;;5.30;99.90;;;5.49;91.06;100000.44;5114516;28;20043;-67
2023/11/30 03:06:00;;;;;;;14.15;11.75;;;5.30;99.90;;;5.50;90.95;100002.19;5114564;28;20449;-67
2023/11/30 03:08:29;;;;;;;17.50;12.65;;;5.40;99.90;;;5.37;90.93;99976.81;5096278;28;20404;-68
2023/11/30 03:10:57;;;;;;;21.00;12.60;;;5.40;99.90;;;5.50;90.72;100003.06;5096185;28;20086;-67
2023/11/30 03:13:25;;;;;;;16.80;10.90;;;5.30;99.90;;;5.54;90.93;99996.06;5114530;28;20105;-67
2023/11/30 03:15:55;;;;;;;15.63;11.60;;;5.30;99.90;;;5.36;90.72;99998.69;5114474;28;20055;-67
2023/11/30 03:18:23;;;;;;;17.30;12.50;;;5.30;99.90;;;5.25;91.52;99996.03;5114409;28;20126;-67
2023/11/30 03:20:52;;;;;;;17.05;11.23;;;5.10;99.90;;;5.36;91.63;99998.69;5096074;28;20465;-67
2023/11/30 03:23:20;;;;;;;15.07;11.98;;;5.20;99.90;;;5.41;91.56;99997.81;5114056;28;20040;-68
2023/11/30 03:25:49;;;;;;;16.67;13.17;;;5.20;99.90;;;5.25;91.64;100006.50;5095986;28;20055;-67
2023/11/30 03:28:17;;;;;;;16.87;12.80;;;5.10;99.90;;;5.10;92.01;99997.72;5114139;28;20048;-68
2023/11/30 03:30:45;;;;;;;15.90;12.37;;;5.00;99.90;;;5.18;92.86;100003.88;5114120;28;20453;-67
2023/11/30 03:33:15;;;;;;;16.30;12.90;;;5.00;99.90;;;5.23;92.38;100003.00;5113843;28;20565;-67
2023/11/30 03:35:44;;;;;;;16.35;12.15;;;5.00;99.90;;;5.11;92.19;99995.09;5096038;28;20047;-68
2023/11/30 03:38:12;;;;;;;17.37;12.13;;;5.00;99.90;;;4.72;93.58;100002.81;5113812;28;20039;-68
2023/11/30 03:40:40;;;;;;;20.23;12.57;;;4.60;99.90;;;4.57;93.75;100002.72;5095690;28;20069;-67
2023/11/30 03:43:09;;;;;;;17.27;12.57;;;4.40;99.90;;;4.26;95.68;99996.41;5113727;28;20074;-68
2023/11/30 03:45:37;;;;;;;17.70;12.67;;;4.10;99.90;;;4.54;95.50;99998.34;5113863;28;20039;-67
2023/11/30 03:48:06;;;;;;;16.17;11.90;;;4.30;99.90;;;4.69;95.20;99996.66;5113754;28;20036;-68
2023/11/30 03:50:36;;;;;;;18.97;13.37;;;4.50;99.90;;;4.81;94.99;100004.59;5095562;28;20495;-67
2023/11/30 03:53:04;;;;;;;17.48;12.45;;;4.60;99.90;;;4.86;94.64;100003.72;5095544;28;20105;-68
2023/11/30 03:55:32;;;;;;;18.13;13.13;;;4.70;99.90;;;4.90;94.68;99997.63;5113761;28;20047;-68
2023/11/30 03:58:01;;;;;;;16.83;12.87;;;4.70;99.90;;;4.82;94.53;99977.53;5113711;28;20053;-67
2023/11/30 04:00:29;;;;;;;17.10;13.23;;;4.80;99.90;;;5.06;94.42;99998.56;5113676;28;20044;-67
2023/11/30 04:02:58;;;;;;;18.07;13.30;;;4.90;99.90;;;5.09;93.72;100002.06;5113536;28;20101;-67
2023/11/30 04:05:27;;;;;;;14.98;12.48;;;4.90;99.90;;;5.12;93.69;99999.47;5113304;28;20501;-67
2023/11/30 04:08:00;;;;;;;18.90;13.88;;;4.90;99.90;;;5.15;93.76;100002.09;5094878;28;20140;-67
2023/11/30 04:10:28;;;;;;;16.10;12.43;;;4.90;99.90;;;5.19;93.58;99993.38;5112916;28;20496;-68
2023/11/30 04:12:57;;;;;;;21.93;13.53;;;5.10;99.90;;;5.21;93.13;99993.38;5095219;28;20051;-67
2023/11/30 04:15:25;;;;;;;17.77;13.10;;;5.10;99.90;;;5.31;93.20;100001.28;5113409;28;20066;-68
2023/11/30 04:17:54;;;;;;;15.90;13.45;;;5.20;99.90;;;5.34;93.11;100003.03;5113421;28;20161;-67
2023/11/30 04:20:22;;;;;;;17.20;12.00;;;5.20;99.90;;;5.33;92.99;100007.41;5113092;28;20463;-68
2023/11/30 04:22:51;;;;;;;19.40;12.80;;;5.20;99.90;;;5.32;92.39;100004.78;5095202;28;20067;-68
2023/11/30 04:25:22;;;;;;;17.42;12.85;;;5.20;99.90;;;5.32;92.76;100004.78;5095068;28;20130;-68
2023/11/30 04:27:50;;;;;;;16.65;13.35;;;5.20;99.90;;;5.28;92.40;99982.91;5113253;28;20058;-67
2023/11/30 04:30:19;;;;;;;19.65;14.18;;;5.20;99.90;;;5.31;91.94;100009.16;5094990;28;20044;-67
2023/11/30 04:32:47;;;;;;;17.67;13.35;;;5.20;99.90;;;5.26;92.03;100005.66;5094976;28;20500;-67
2023/11/30 04:35:16;;;;;;;15.20;13.50;;;5.10;99.90;;;5.25;91.94;100003.88;5113532;28;20043;-67
2023/11/30 04:37:44;;;;;;;20.10;13.82;;;5.10;99.90;;;5.22;92.15;100000.38;5113251;28;20051;-68
2023/11/30 04:40:13;;;;;;;17.87;13.93;;;5.00;99.90;;;5.30;92.29;99993.41;5094975;28;20427;-67
2023/11/30 04:42:43;;;;;;;16.20;13.70;;;5.10;99.90;;;5.29;92.06;100002.13;5094845;28;20044;-67
2023/11/30 04:45:12;;;;;;;15.27;12.75;;;5.10;99.90;;;5.30;91.83;100001.28;5094988;28;20101;-67
2023/11/30 04:47:40;;;;;;;21.42;13.95;;;5.10;99.90;;;5.25;91.98;100001.25;5094828;28;20050;-67
2023/11/30 04:50:10;;;;;;;18.83;13.63;;;5.10;99.90;;;5.28;91.62;100005.66;5095086;28;20044;-67
2023/11/30 04:52:39;;;;;;;21.38;13.95;;;5.00;99.90;;;5.27;91.57;99999.53;5094930;28;20066;-68
2023/11/30 04:55:09;;;;;;;16.35;13.40;;;5.00;99.90;;;5.24;91.57;100003.88;5112751;28;20046;-67
2023/11/30 04:57:37;;;;;;;21.50;15.27;;;5.00;99.90;;;5.13;90.92;100006.47;5112816;28;20527;-67
2023/11/30 05:00:09;;;;;;;19.50;15.50;;;5.00;99.90;;;4.94;90.95;100009.00;5112720;28;20497;-68
2023/11/30 05:02:38;;;;;;;27.53;14.80;;;4.70;99.90;;;4.81;90.87;100012.44;5113105;28;20781;-67
2023/11/30 05:05:07;;;;;;;33.43;13.90;;;4.60;99.90;;;4.61;90.30;100001.00;5094689;28;20061;-67
2023/11/30 05:07:36;;;;;;;14.35;11.55;;;4.50;99.90;;;4.45;90.41;100013.13;5112643;28;20089;-67
2023/11/30 05:10:05;;;;;;;23.47;14.23;;;4.30;99.90;;;4.27;90.29;99998.19;5113448;28;20067;-67
2023/11/30 05:12:34;;;;;;;21.88;12.43;;;4.10;99.90;;;4.01;90.06;100002.34;5112980;28;20055;-67
2023/11/30 05:15:02;;;;;;;16.13;13.30;;;3.80;99.90;;;3.93;91.74;100004.00;5113167;28;20040;-67
2023/11/30 05:17:32;;;;;;;20.50;14.47;;;3.70;99.90;;;4.12;91.85;100011.13;5112575;28;20139;-68
2023/11/30 05:20:03;;;;;;;19.63;14.50;;;3.90;99.90;;;4.22;91.95;100005.09;5114199;28;20046;-67
2023/11/30 05:22:32;;;;;;;15.85;14.15;;;4.00;99.90;;;4.28;92.53;100004.28;5116462;28;20118;-67
2023/11/30 05:25:00;;;;;;;27.40;14.13;;;4.10;99.90;;;4.34;92.74;100002.59;5116370;28;20067;-67
2023/11/30 05:27:28;;;;;;;17.10;14.43;;;4.20;99.90;;;4.39;92.52;100002.63;5116231;28;20036;-67
2023/11/30 05:29:57;;;;;;;15.53;13.83;;;4.30;99.90;;;4.46;92.60;99999.16;5116222;28;20077;-67
2023/11/30 05:32:25;;;;;;;26.67;15.03;;;4.30;99.90;;;4.52;93.16;99994.84;5116738;28;20147;-67
2023/11/30 05:34:55;;;;;;;25.23;14.73;;;4.40;99.90;;;4.54;93.21;99994.84;5116286;28;20047;-68
2023/11/30 05:37:23;;;;;;;24.13;15.90;;;4.40;99.90;;;4.53;93.02;99993.09;5116226;28;20377;-68
2023/11/30 05:39:51;;;;;;;37.33;16.83;;;4.40;99.90;;;4.36;93.02;100002.59;5116092;28;20110;-67
2023/11/30 05:42:20;;;;;;;75.60;17.77;;;4.30;99.90;;;4.37;93.22;99994.78;5116027;28;20496;-67
2023/11/30 05:44:48;;;;;;;138.47;20.33;;;4.30;99.90;;;4.23;93.66;100000.75;5116556;28;20044;-67
2023/11/30 05:47:16;;;;;;;23.37;15.67;;;4.30;99.90;;;4.25;94.03;100005.16;5116200;28;20044;-67
2023/11/30 05:49:45;;;;;;;19.37;16.50;;;4.20;99.90;;;4.29;94.29;100006.91;5115894;28;20059;-67
2023/11/30 05:52:14;;;;;;;23.10;16.00;;;4.20;99.90;;;4.31;94.43;100012.16;5115759;28;20044;-67
2023/11/30 05:54:43;;;;;;;24.67;16.00;;;4.20;99.90;;;4.33;94.46;100016.56;5098097;28;20056;-67
2023/11/30 05:57:11;;;;;;;33.20;16.23;;;4.20;99.90;;;4.40;94.50;100020.06;5116021;28;20093;-67
2023/11/30 05:59:40;;;;;;;26.10;16.77;;;4.30;99.90;;;4.35;94.22;100019.16;5116289;28;20051;-67
2023/11/30 06:02:10;;;;;;;27.93;18.47;;;4.30;99.90;;;4.36;94.61;100010.44;5115844;28;20063;-68
2023/11/30 06:04:49;;;;;;;28.00;17.70;;;4.20;99.90;;;4.38;94.77;100012.22;5115956;28;20067;-67
2023/11/30 06:07:21;;;;;;;27.67;17.80;;;4.30;99.90;;;4.44;94.88;100020.09;5116114;28;20480;-67
2023/11/30 06:09:49;;;;;;;21.80;17.03;;;4.30;99.90;;;4.25;94.12;100028.69;5115538;28;20085;-68
2023/11/30 06:12:17;;;;;;;33.73;17.70;;;4.20;99.90;;;4.36;94.46;100028.75;5115407;28;20043;-67
2023/11/30 06:14:46;;;;;;;25.67;17.77;;;4.20;99.90;;;4.39;94.67;100029.66;5115749;28;20040;-67
2023/11/30 06:17:15;;;;;;;33.40;18.33;;;4.30;99.90;;;4.48;94.46;100044.56;5115607;28;20051;-67
2023/11/30 06:19:44;;;;;;;54.58;18.88;;;4.30;99.90;;;4.37;94.52;100033.16;5097298;28;20130;-67
2023/11/30 06:22:12;;;;;;;23.57;19.50;;;4.30;99.90;;;4.43;94.40;100049.75;5115214;28;20557;-67
2023/11/30 06:24:43;;;;;;;28.80;18.40;;;4.30;99.90;;;4.47;94.47;100043.66;5115435;28;20036;-67
2023/11/30 06:27:12;;;;;;;28.90;18.63;;;4.40;99.90;;;4.51;94.32;100048.06;5115097;28;20044;-68
2023/11/30 06:29:40;;;;;;;28.13;19.43;;;4.40;99.90;;;4.49;94.62;100041.09;5115421;28;20373;-66
2023/11/30 06:32:08;;;;;;;24.17;18.27;;;4.40;99.90;;;4.51;94.28;100047.19;5114264;28;20055;-67
2023/11/30 06:34:37;;;;;;;23.80;18.63;;;4.40;99.90;;;4.49;93.88;100044.56;5115291;28;20101;-68
2023/11/30 06:37:07;;;;;;;29.92;19.73;;;4.40;99.90;;;4.47;94.18;100059.38;5115269;28;20568;-68
2023/11/30 06:39:36;;;;;;;21.23;17.90;;;4.40;99.90;;;4.45;94.12;100053.25;5096524;28;20040;-68
2023/11/30 06:42:06;;;;;;;60.70;20.47;;;4.30;99.90;;;4.50;94.63;100056.78;5115015;28;20486;-68
2023/11/30 06:44:34;;;;;;;24.10;19.15;;;4.40;99.90;;;4.56;94.45;100062.06;5115273;28;20043;-67
2023/11/30 06:47:03;;;;;;;62.00;20.43;;;4.40;99.90;;;4.54;93.87;100055.94;5114572;28;20432;-67
2023/11/30 06:49:31;;;;;;;23.57;19.40;;;4.40;99.90;;;4.55;94.23;100056.81;5114483;28;20120;-67
2023/11/30 06:52:00;;;;;;;26.87;19.70;;;4.40;99.90;;;4.60;94.27;100065.59;5115083;28;20085;-67
2023/11/30 06:54:32;;;;;;;27.00;20.37;;;4.40;99.90;;;4.63;94.36;100064.75;5114697;28;20092;-67
2023/11/30 06:57:01;;;;;;;23.87;18.93;;;4.50;99.90;;;4.56;94.31;100064.69;5115031;28;20036;-68
2023/11/30 06:59:31;;;;;;;26.97;20.63;;;4.40;99.90;;;4.68;94.24;100060.41;5114480;28;20404;-67
2023/11/30 07:02:01;;;;;;;28.03;20.67;;;4.50;99.90;;;4.69;94.17;100065.63;5114833;28;20542;-68
2023/11/30 07:04:29;;;;;;;29.07;21.27;;;4.50;99.90;;;4.71;93.83;100063.91;5114964;28;20047;-67
2023/11/30 07:06:58;;;;;;;30.00;21.40;;;4.60;99.90;;;4.70;93.87;100066.50;5114326;28;20058;-68
2023/11/30 07:09:26;;;;;;;29.15;22.13;;;4.50;99.90;;;4.71;93.85;100070.88;5114255;28;20040;-68
2023/11/30 07:11:55;;;;;;;33.23;22.53;;;4.60;99.90;;;4.76;94.15;100066.56;5114282;28;20432;-67
2023/11/30 07:14:23;;;;;;;30.77;22.83;;;4.60;99.90;;;4.75;94.43;100067.41;5114204;28;20385;-68
2023/11/30 07:16:53;;;;;;;38.55;26.88;;;4.60;99.90;;;4.78;94.30;100070.91;5114126;28;20039;-67
2023/11/30 07:19:21;;;;;;;44.80;28.90;;;4.60;99.90;;;4.74;94.12;100073.53;5096099;28;20412;-67
2023/11/30 07:21:50;;;;;;;46.75;28.73;;;4.60;99.90;;;4.73;94.21;100070.03;5114271;28;20035;-67
2023/11/30 07:24:18;;;;;;;49.17;30.20;;;4.60;99.90;;;4.72;94.12;100051.69;5114172;28;20055;-68
2023/11/30 07:26:48;;;;;;;53.57;32.13;;;4.60;99.90;;;4.75;94.62;100070.03;5114100;28;20048;-68
2023/11/30 07:29:18;;;;;;;63.03;32.80;;;4.60;99.90;;;4.74;94.50;100071.78;5113876;28;20046;-67
2023/11/30 07:31:46;;;;;;;53.65;32.95;;;4.60;99.90;;;4.77;94.75;100073.53;5114244;28;20046;-68
2023/11/30 07:34:16;;;;;;;54.58;34.22;;;4.60;99.90;;;4.79;94.85;100074.41;5113834;28;20046;-68
2023/11/30 07:36:44;;;;;;;55.30;33.15;;;4.60;99.90;;;4.83;94.72;100074.44;5113757;28;20043;-67
2023/11/30 07:39:13;;;;;;;54.67;33.90;;;4.60;99.90;;;4.87;94.62;100065.75;5114242;28;20047;-67
2023/11/30 07:41:41;;;;;;;53.33;32.63;;;4.70;99.90;;;4.71;93.98;100048.19;5113740;28;20043;-67
2023/11/30 07:44:10;;;;;;;48.67;31.60;;;4.70;99.90;;;4.81;93.94;100070.06;5113586;28;20043;-65
2023/11/30 07:46:38;;;;;;;50.97;32.78;;;4.70;99.90;;;4.82;94.08;100066.59;5114017;28;20048;-65
2023/11/30 07:49:07;;;;;;;53.43;33.10;;;4.70;99.90;;;4.81;93.96;100073.56;5113680;28;20454;-66
2023/11/30 07:51:36;;;;;;;49.87;33.03;;;4.60;99.90;;;4.83;93.93;100068.34;5113499;28;20039;-65
2023/11/30 07:54:05;;;;;;;46.63;31.80;;;4.70;99.90;;;4.25;93.43;99973.75;5114275;28;20051;-66
2023/11/30 07:56:34;;;;;;;49.85;32.85;;;4.70;99.90;;;4.81;93.91;100076.19;5113913;28;20358;-65
2023/11/30 07:59:05;;;;;;;51.08;32.95;;;4.70;99.90;;;4.81;93.81;100076.19;5113382;28;20051;-66
2023/11/30 08:01:34;;;;;;;51.43;32.83;;;4.70;99.90;;;4.79;93.00;100074.41;5113139;28;20056;-66
2023/11/30 08:04:02;;;;;;;50.33;32.00;;;4.60;99.90;;;4.78;93.50;100072.69;5113847;28;20051;-69
2023/11/30 08:06:31;;;;;;;51.00;33.60;;;4.60;99.90;;;4.78;93.49;100070.91;5113275;28;20047;-69
2023/11/30 08:09:01;;;;;;;50.97;33.33;;;4.70;99.90;;;4.84;93.14;100075.34;5113015;28;20039;-69
2023/11/30 08:11:30;;;;;;;51.30;32.75;;;4.70;99.90;;;4.54;93.08;100029.78;5113480;28;20050;-70
2023/11/30 08:13:59;;;;;;;55.77;33.47;;;4.70;99.90;;;4.77;92.74;100065.69;5113094;28;20130;-70
2023/11/30 08:16:27;;;;;;;47.60;31.47;;;4.60;99.90;;;4.70;92.96;100077.88;5113430;28;20071;-71
2023/11/30 08:18:55;;;;;;;55.13;34.07;;;4.60;99.90;;;4.68;93.24;100079.59;5113323;28;20043;-72
2023/11/30 08:21:24;;;;;;;55.77;33.97;;;4.60;99.90;;;4.62;93.24;100068.22;5113178;28;20039;-68
2023/11/30 08:23:52;;;;;;;54.10;32.77;;;4.60;99.90;;;4.74;93.54;100073.53;5113771;28;20052;-68
2023/11/30 08:26:22;;;;;;;52.97;33.73;;;4.60;99.90;;;4.71;93.52;100071.75;5112968;28;20073;-67
2023/11/30 08:28:50;;;;;;;55.88;32.72;;;4.70;99.90;;;4.73;93.44;100075.25;5113365;28;20493;-62
2023/11/30 08:31:19;;;;;;;53.70;32.50;;;4.60;99.90;;;4.68;93.47;100066.50;5094810;28;20093;-63
2023/11/30 08:33:48;;;;;;;46.43;30.93;;;4.60;99.90;;;4.73;93.34;100072.66;5112974;28;20043;-62
2023/11/30 08:36:16;;;;;;;49.00;31.37;;;4.60;99.90;;;4.67;93.12;100071.72;5112934;28;20067;-64
2023/11/30 08:38:45;;;;;;;61.50;31.63;;;4.60;99.90;;;4.66;93.59;100075.22;5112910;28;20501;-61
2023/11/30 08:41:13;;;;;;;131.60;34.93;;;4.60;99.90;;;3.82;93.98;100031.81;5112826;28;20048;-62
2023/11/30 08:43:43;;;;;;;113.70;35.73;;;4.10;99.90;;;3.51;95.98;100055.91;5112852;28;20161;-61
2023/11/30 08:46:12;;;;;;;45.97;32.25;;;3.60;99.90;;;3.92;97.64;100056.31;5112995;28;20043;-66
2023/11/30 08:48:41;;;;;;;83.87;32.07;;;3.70;99.90;;;3.96;97.48;100052.88;5112861;28;20176;-66
2023/11/30 08:51:10;;;;;;;49.77;32.57;;;3.80;99.90;;;4.03;97.27;100052.03;5112689;28;20044;-67
2023/11/30 08:53:39;;;;;;;87.40;33.40;;;3.90;99.90;;;4.12;97.14;100050.38;5113047;28;20067;-67
2023/11/30 08:56:10;;;;;;;47.70;32.57;;;4.00;99.90;;;4.35;97.46;100061.06;5115996;28;20108;-67
2023/11/30 08:58:38;;;;;;;51.13;32.50;;;4.20;99.90;;;4.26;97.18;100063.56;5098853;28;20044;-67
2023/11/30 09:01:09;;;;;;;127.70;35.93;;;4.10;99.90;;;4.28;96.74;100065.34;5116794;28;20036;-66
2023/11/30 09:03:38;;;;;;;84.33;33.83;;;4.10;99.90;;;3.80;96.84;100054.47;5116744;28;20035;-66
2023/11/30 09:06:10;;;;;;;69.07;32.28;;;3.80;99.90;;;3.78;97.97;100058.81;5098677;28;20047;-68
2023/11/30 09:08:39;;;;;;;53.75;32.08;;;3.60;99.90;;;3.94;98.20;100047.63;5117289;28;20031;-64
2023/11/30 09:11:08;;;;;;;92.93;32.97;;;3.70;99.90;;;3.55;97.48;100060.31;5116430;28;20074;-64
2023/11/30 09:13:36;;;;;;;47.13;31.90;;;3.40;99.90;;;3.37;99.42;100061.00;5117129;28;20051;-64
2023/11/30 09:16:06;;;;;;;312.60;42.13;;;3.20;99.90;;;3.11;100.00;100066.78;5116751;28;20046;-63
2023/11/30 09:18:36;;;;;;;46.25;31.48;;;3.00;99.90;;;3.63;100.00;100058.66;5116485;28;20043;-68
2023/11/30 09:21:05;;;;;;;160.70;33.85;;;3.40;99.90;;;3.75;99.67;100063.13;5116608;28;20067;-68
2023/11/30 09:23:34;;;;;;;44.10;31.98;;;3.60;99.90;;;3.80;99.45;100046.63;5116569;28;20054;-68
2023/11/30 09:26:07;;;;;;;53.27;32.40;;;3.70;99.90;;;3.98;98.92;100065.09;5116269;28;20063;-70
2023/11/30 09:28:37;;;;;;;52.47;33.00;;;3.90;99.90;;;4.17;98.99;100063.50;5116307;28;20081;-70
2023/11/30 09:31:07;;;;;;;46.65;32.97;;;4.00;99.90;;;4.23;98.37;100067.06;5116247;28;20449;-71
2023/11/30 09:33:37;;;;;;;156.13;33.37;;;4.10;99.90;;;3.85;97.91;100033.59;5116398;28;20050;-72
2023/11/30 09:36:07;;;;;;;80.60;31.90;;;4.00;99.90;;;3.91;97.89;100060.66;5116701;28;20040;-71
2023/11/30 09:38:36;;;;;;;48.80;32.97;;;3.90;99.90;;;4.18;98.64;100063.50;5116759;28;20047;-72
2023/11/30 09:41:07;;;;;;;47.07;33.03;;;4.00;99.90;;;4.38;98.74;100067.16;5116680;28;20062;-72
2023/11/30 09:43:36;;;;;;;46.20;31.57;;;4.20;99.90;;;4.53;98.97;100074.25;5116715;28;20051;-69
2023/11/30 09:46:04;;;;;;;48.60;33.67;;;4.40;99.90;;;4.65;98.71;100073.44;5116071;28;20548;-67
2023/11/30 09:48:33;;;;;;;52.50;34.37;;;4.50;99.90;;;4.71;98.51;100070.88;5116569;28;20048;-67
2023/11/30 09:51:03;;;;;;;48.43;34.47;;;4.60;99.90;;;4.84;98.51;100081.44;5115632;28;20047;-67
2023/11/30 09:53:32;;;;;;;50.05;34.15;;;4.70;99.90;;;4.57;97.97;100007.94;5115774;28;20104;-67
2023/11/30 09:56:00;;;;;;;50.57;34.47;;;4.80;99.90;;;5.07;97.98;100064.09;5115648;28;20119;-66
2023/11/30 09:58:29;;;;;;;54.37;35.63;;;4.90;99.90;;;5.16;97.68;100092.97;5116331;28;20116;-68
2023/11/30 10:01:00;;;;;;;51.07;35.23;;;5.00;99.90;;;5.16;97.36;100092.09;5115725;28;20051;-69
2023/11/30 10:03:33;;;;;;;61.17;37.67;;;5.00;99.90;;;5.08;97.33;100080.69;5097895;28;20082;-69
2023/11/30 10:06:04;;;;;;;51.17;36.05;;;5.10;99.90;;;5.27;96.76;100095.63;5114978;28;20387;-69
2023/11/30 10:08:32;;;;;;;;;;;5.20;99.90;;;5.18;96.08;100098.22;5115881;28;20471;-68
2023/11/30 10:11:01;;;;;;;52.87;36.00;;;5.10;99.90;;;5.20;96.51;100099.09;5115644;28;19932;-67
2023/11/30 10:13:30;;;;;;;55.33;37.87;;;5.10;99.90;;;5.24;96.60;100093.00;5115381;28;20043;-67
2023/11/30 10:15:58;;;;;;;50.08;35.17;;;5.10;99.90;;;5.34;96.48;100089.56;5115560;28;20067;-69
2023/11/30 10:18:28;;;;;;;54.05;37.45;;;5.20;99.90;;;5.17;96.46;100071.13;5115279;28;20040;-67
2023/11/30 10:20:57;;;;;;;;;;;5.10;99.90;;;5.31;96.37;100084.28;5116109;28;20118;-64